createdAt,value
2016-10-27T00:00:49.702Z,1021.84
2016-10-27T00:01:49.586Z,1021.88
2016-10-27T00:02:49.616Z,1021.87
2016-10-27T00:03:49.529Z,1021.89
2016-10-27T00:04:49.497Z,1021.91
2016-10-27T00:05:49.492Z,1021.87
2016-10-27T00:06:49.444Z,1021.86
2016-10-27T00:07:49.417Z,1021.88
2016-10-27T00:08:49.454Z,1021.89
2016-10-27T00:09:49.374Z,1021.91
2016-10-27T00:10:49.402Z,1021.94
2016-10-27T00:11:49.322Z,1021.94
2016-10-27T00:12:49.313Z,1021.92
2016-10-27T00:13:49.300Z,1021.91
2016-10-27T00:14:49.218Z,1021.95
2016-10-27T00:15:49.257Z,1021.93
2016-10-27T00:16:49.263Z,1021.97
2016-10-27T00:17:49.418Z,1022
2016-10-27T00:18:49.105Z,1021.97
2016-10-27T00:19:49.077Z,1022
2016-10-27T00:21:49.009Z,1021.99
2016-10-27T00:22:49.038Z,1021.98
2016-10-27T00:23:48.992Z,1021.96
2016-10-27T00:24:48.925Z,1022.01
2016-10-27T00:25:48.898Z,1022.02
2016-10-27T00:27:48.844Z,1022.08
2016-10-27T00:28:48.813Z,1022.09
2016-10-27T00:29:48.798Z,1022.15
2016-10-27T00:30:49.260Z,1022.19
2016-10-27T00:31:48.725Z,1022.17
2016-10-27T00:32:48.796Z,1022.2
2016-10-27T00:34:48.638Z,1022.23
2016-10-27T00:35:48.660Z,1022.28
2016-10-27T00:36:50.978Z,1022.29
2016-10-27T00:37:48.889Z,1022.25
2016-10-27T00:38:48.525Z,1022.26
2016-10-27T00:39:48.488Z,1022.28
2016-10-27T00:40:48.513Z,1022.25
2016-10-27T00:41:48.440Z,1022.23
2016-10-27T00:42:48.428Z,1022.24
2016-10-27T00:43:48.382Z,1022.28
2016-10-27T00:44:48.353Z,1022.3
2016-10-27T00:45:48.316Z,1022.31
2016-10-27T00:46:48.290Z,1022.32
2016-10-27T00:47:48.307Z,1022.32
2016-10-27T00:48:48.283Z,1022.36
2016-10-27T00:49:48.208Z,1022.38
2016-10-27T00:50:48.172Z,1022.37
2016-10-27T00:51:48.146Z,1022.37
2016-10-27T00:52:48.278Z,1022.38
2016-10-27T00:53:48.200Z,1022.37
2016-10-27T00:54:48.065Z,1022.38
2016-10-27T00:56:48.057Z,1022.35
2016-10-27T00:57:47.979Z,1022.34
2016-10-27T00:58:47.943Z,1022.31
2016-10-27T00:59:47.920Z,1022.29
2016-10-27T01:00:47.896Z,1022.32
2016-10-27T01:01:48.158Z,1022.32
2016-10-27T01:03:47.817Z,1022.38
2016-10-27T01:04:47.782Z,1022.41
2016-10-27T01:05:47.773Z,1022.4
2016-10-27T01:06:47.727Z,1022.38
2016-10-27T01:07:47.704Z,1022.38
2016-10-27T01:08:47.915Z,1022.38
2016-10-27T01:09:47.636Z,1022.33
2016-10-27T01:10:47.623Z,1022.28
2016-10-27T01:11:47.582Z,1022.33
2016-10-27T01:12:47.767Z,1022.32
2016-10-27T01:13:47.514Z,1022.24
2016-10-27T01:14:47.493Z,1022.27
2016-10-27T01:15:47.477Z,1022.23
2016-10-27T01:17:47.401Z,1022.29
2016-10-27T01:18:47.374Z,1022.3
2016-10-27T01:19:47.346Z,1022.28
2016-10-27T01:20:47.315Z,1022.24
2016-10-27T01:21:47.472Z,1022.26
2016-10-27T01:22:47.261Z,1022.22
2016-10-27T01:23:47.229Z,1022.24
2016-10-27T01:24:47.204Z,1022.22
2016-10-27T01:25:47.185Z,1022.19
2016-10-27T01:26:47.196Z,1022.17
2016-10-27T01:27:47.110Z,1022.17
2016-10-27T01:28:47.106Z,1022.14
2016-10-27T01:29:47.067Z,1022.13
2016-10-27T01:30:47.025Z,1022.15
2016-10-27T01:31:47.154Z,1022.19
2016-10-27T01:32:46.982Z,1022.09
2016-10-27T01:33:47.159Z,1022.22
2016-10-27T01:34:46.912Z,1022.22
2016-10-27T01:35:46.937Z,1022.24
2016-10-27T01:37:46.827Z,1022.18
2016-10-27T01:38:46.802Z,1022.19
2016-10-27T01:39:46.768Z,1022.21
2016-10-27T01:40:46.778Z,1022.23
2016-10-27T01:41:46.716Z,1022.25
2016-10-27T01:42:46.743Z,1022.24
2016-10-27T01:43:46.651Z,1022.28
2016-10-27T01:44:46.637Z,1022.27
2016-10-27T01:45:46.614Z,1022.27
2016-10-27T01:46:46.939Z,1022.29
2016-10-27T01:48:46.515Z,1022.24
2016-10-27T01:49:46.480Z,1022.27
2016-10-27T01:50:46.461Z,1022.22
2016-10-27T01:51:46.421Z,1022.22
2016-10-27T01:52:46.396Z,1022.18
2016-10-27T01:53:46.370Z,1022.18
2016-10-27T01:54:46.339Z,1022.19
2016-10-27T01:55:46.359Z,1022.21
2016-10-27T01:56:46.608Z,1022.2
2016-10-27T01:57:46.255Z,1022.22
2016-10-27T01:58:46.256Z,1022.21
2016-10-27T01:59:46.206Z,1022.19
2016-10-27T02:00:46.188Z,1022.21
2016-10-27T02:01:46.145Z,1022.2
2016-10-27T02:02:46.113Z,1022.22
2016-10-27T02:04:46.060Z,1022.24
2016-10-27T02:05:46.047Z,1022.2
2016-10-27T02:06:46.003Z,1022.22
2016-10-27T02:07:46.021Z,1022.28
2016-10-27T02:08:45.941Z,1022.2
2016-10-27T02:09:45.913Z,1022.21
2016-10-27T02:10:45.897Z,1022.2
2016-10-27T02:11:45.861Z,1022.16
2016-10-27T02:13:45.906Z,1022.13
2016-10-27T02:14:45.776Z,1022.14
2016-10-27T02:15:45.772Z,1022.16
2016-10-27T02:16:45.733Z,1022.13
2016-10-27T02:17:45.762Z,1022.16
2016-10-27T02:18:45.666Z,1022.14
2016-10-27T02:19:45.634Z,1022.15
2016-10-27T02:20:45.612Z,1022.15
2016-10-27T02:21:45.572Z,1022.11
2016-10-27T02:22:45.545Z,1022.21
2016-10-27T02:24:45.488Z,1022.22
2016-10-27T02:25:45.667Z,1022.22
2016-10-27T02:26:45.445Z,1022.2
2016-10-27T02:27:45.405Z,1022.21
2016-10-27T02:28:45.442Z,1022.23
2016-10-27T02:29:45.343Z,1022.25
2016-10-27T02:30:45.316Z,1022.3
2016-10-27T02:31:45.282Z,1022.3
2016-10-27T02:32:45.255Z,1022.31
2016-10-27T02:33:45.231Z,1022.3
2016-10-27T02:34:45.198Z,1022.31
2016-10-27T02:37:45.155Z,1022.32
2016-10-27T02:38:45.083Z,1022.32
2016-10-27T02:39:45.266Z,1022.35
2016-10-27T02:40:45.042Z,1022.31
2016-10-27T02:41:45.008Z,1022.31
2016-10-27T02:42:44.986Z,1022.26
2016-10-27T02:43:45.054Z,1022.25
2016-10-27T02:44:44.917Z,1022.26
2016-10-27T02:45:44.987Z,1022.24
2016-10-27T02:46:44.916Z,1022.23
2016-10-27T02:48:45.036Z,1022.19
2016-10-27T02:50:44.901Z,1022.23
2016-10-27T02:51:44.949Z,1022.23
2016-10-27T02:52:44.797Z,1022.22
2016-10-27T02:53:44.913Z,1022.28
2016-10-27T02:54:44.880Z,1022.28
2016-10-27T02:55:44.860Z,1022.27
2016-10-27T02:56:44.881Z,1022.25
2016-10-27T02:58:45.082Z,1022.24
2016-10-27T02:59:44.899Z,1022.21
2016-10-27T03:00:44.769Z,1022.19
2016-10-27T03:02:44.839Z,1022.25
2016-10-27T03:08:44.786Z,1022.4
2016-10-27T03:10:45.043Z,1022.41
2016-10-27T03:15:44.864Z,1022.46
2016-10-27T03:16:44.577Z,1022.46
2016-10-27T03:17:45.440Z,1022.48
2016-10-27T03:18:44.818Z,1022.46
2016-10-27T03:19:44.582Z,1022.44
2016-10-27T03:20:44.723Z,1022.44
2016-10-27T03:21:44.402Z,1022.49
2016-10-27T03:22:43.831Z,1022.5
2016-10-27T03:23:43.815Z,1022.47
2016-10-27T03:24:43.771Z,1022.45
2016-10-27T03:25:43.757Z,1022.44
2016-10-27T03:27:43.699Z,1022.46
2016-10-27T03:28:43.658Z,1022.45
2016-10-27T03:29:43.725Z,1022.46
2016-10-27T03:30:43.620Z,1022.47
2016-10-27T03:31:43.597Z,1022.44
2016-10-27T03:32:43.570Z,1022.45
2016-10-27T03:33:43.531Z,1022.43
2016-10-27T03:34:43.551Z,1022.44
2016-10-27T03:35:43.459Z,1022.47
2016-10-27T03:36:43.433Z,1022.49
2016-10-27T03:37:43.406Z,1022.47
2016-10-27T03:38:43.395Z,1022.47
2016-10-27T03:39:43.369Z,1022.49
2016-10-27T03:40:43.321Z,1022.47
2016-10-27T03:41:43.292Z,1022.47
2016-10-27T03:42:43.269Z,1022.47
2016-10-27T03:43:43.236Z,1022.45
2016-10-27T03:44:43.256Z,1022.44
2016-10-27T03:45:43.175Z,1022.4
2016-10-27T03:46:43.156Z,1022.39
2016-10-27T03:47:43.128Z,1022.41
2016-10-27T03:48:43.124Z,1022.38
2016-10-27T03:49:43.173Z,1022.43
2016-10-27T03:50:43.041Z,1022.45
2016-10-27T03:51:43.020Z,1022.48
2016-10-27T03:52:42.980Z,1022.49
2016-10-27T03:53:42.949Z,1022.52
2016-10-27T03:54:42.946Z,1022.51
2016-10-27T03:55:42.895Z,1022.44
2016-10-27T03:56:42.861Z,1022.5
2016-10-27T03:57:42.830Z,1022.48
2016-10-27T03:58:42.815Z,1022.45
2016-10-27T03:59:42.828Z,1022.44
2016-10-27T04:00:42.762Z,1022.48
2016-10-27T04:01:42.721Z,1022.44
2016-10-27T04:03:42.664Z,1022.48
2016-10-27T04:04:42.641Z,1022.52
2016-10-27T04:05:42.617Z,1022.48
2016-10-27T04:06:42.585Z,1022.5
2016-10-27T04:07:42.561Z,1022.45
2016-10-27T04:08:42.523Z,1022.45
2016-10-27T04:09:42.491Z,1022.41
2016-10-27T04:10:42.816Z,1022.41
2016-10-27T04:11:42.444Z,1022.42
2016-10-27T04:12:42.403Z,1022.44
2016-10-27T04:13:42.382Z,1022.46
2016-10-27T04:14:42.349Z,1022.44
2016-10-27T04:15:42.727Z,1022.41
2016-10-27T04:16:42.511Z,1022.47
2016-10-27T04:17:42.271Z,1022.41
2016-10-27T04:18:42.294Z,1022.43
2016-10-27T04:19:42.264Z,1022.39
2016-10-27T04:20:42.184Z,1022.39
2016-10-27T04:21:42.149Z,1022.41
2016-10-27T04:22:42.125Z,1022.45
2016-10-27T04:23:42.094Z,1022.44
2016-10-27T04:24:42.094Z,1022.48
2016-10-27T04:25:42.037Z,1022.44
2016-10-27T04:26:42.013Z,1022.47
2016-10-27T04:27:41.980Z,1022.43
2016-10-27T04:28:41.947Z,1022.43
2016-10-27T04:29:41.927Z,1022.4
2016-10-27T04:30:41.903Z,1022.4
2016-10-27T04:31:41.867Z,1022.42
2016-10-27T04:32:41.838Z,1022.42
2016-10-27T04:33:41.821Z,1022.39
2016-10-27T04:34:41.798Z,1022.41
2016-10-27T04:35:42.211Z,1022.46
2016-10-27T04:36:41.722Z,1022.48
2016-10-27T04:37:41.708Z,1022.51
2016-10-27T04:38:41.762Z,1022.51
2016-10-27T04:39:41.660Z,1022.56
2016-10-27T04:40:41.620Z,1022.52
2016-10-27T04:41:41.588Z,1022.58
2016-10-27T04:42:41.603Z,1022.58
2016-10-27T04:43:41.522Z,1022.6
2016-10-27T04:44:41.494Z,1022.55
2016-10-27T04:45:41.465Z,1022.5
2016-10-27T04:46:41.444Z,1022.51
2016-10-27T04:47:41.445Z,1022.52
2016-10-27T04:48:41.381Z,1022.56
2016-10-27T04:49:41.355Z,1022.56
2016-10-27T04:50:41.332Z,1022.58
2016-10-27T04:51:41.292Z,1022.55
2016-10-27T04:52:41.276Z,1022.56
2016-10-27T04:53:41.286Z,1022.56
2016-10-27T04:55:41.187Z,1022.64
2016-10-27T04:56:41.152Z,1022.61
2016-10-27T04:57:41.124Z,1022.64
2016-10-27T04:58:41.400Z,1022.62
2016-10-27T04:59:41.082Z,1022.6
2016-10-27T05:00:41.041Z,1022.69
2016-10-27T05:01:41.013Z,1022.63
2016-10-27T05:02:40.984Z,1022.67
2016-10-27T05:03:40.949Z,1022.7
2016-10-27T05:04:41.082Z,1022.72
2016-10-27T05:05:40.901Z,1022.74
2016-10-27T05:06:40.916Z,1022.77
2016-10-27T05:07:40.844Z,1022.78
2016-10-27T05:08:40.814Z,1022.76
2016-10-27T05:09:40.821Z,1022.76
2016-10-27T05:10:40.775Z,1022.76
2016-10-27T05:11:40.739Z,1022.8
2016-10-27T05:12:40.701Z,1022.85
2016-10-27T05:14:40.754Z,1022.81
2016-10-27T05:15:40.616Z,1022.79
2016-10-27T05:16:40.602Z,1022.74
2016-10-27T05:17:40.557Z,1022.75
2016-10-27T05:18:40.526Z,1022.71
2016-10-27T05:19:40.502Z,1022.79
2016-10-27T05:20:40.478Z,1022.77
2016-10-27T05:21:40.457Z,1022.75
2016-10-27T05:22:40.414Z,1022.76
2016-10-27T05:23:40.430Z,1022.81
2016-10-27T05:24:40.352Z,1022.77
2016-10-27T05:25:40.379Z,1022.76
2016-10-27T05:26:40.319Z,1022.74
2016-10-27T05:27:40.282Z,1022.77
2016-10-27T05:28:40.264Z,1022.76
2016-10-27T05:29:40.272Z,1022.81
2016-10-27T05:30:40.200Z,1022.8
2016-10-27T05:31:40.208Z,1022.79
2016-10-27T05:32:40.139Z,1022.79
2016-10-27T05:33:40.108Z,1022.84
2016-10-27T05:34:40.099Z,1022.79
2016-10-27T05:35:40.043Z,1022.81
2016-10-27T05:36:40.030Z,1022.82
2016-10-27T05:37:40.042Z,1022.78
2016-10-27T05:38:39.958Z,1022.78
2016-10-27T05:40:39.914Z,1022.8
2016-10-27T05:41:39.880Z,1022.78
2016-10-27T05:42:39.961Z,1022.83
2016-10-27T05:43:39.825Z,1022.89
2016-10-27T05:44:39.854Z,1022.91
2016-10-27T05:45:39.759Z,1022.95
2016-10-27T05:46:39.737Z,1022.94
2016-10-27T05:47:39.721Z,1022.98
2016-10-27T05:48:39.681Z,1023.03
2016-10-27T05:49:39.642Z,1023.01
2016-10-27T05:50:39.621Z,1023.07
2016-10-27T05:51:39.599Z,1023.03
2016-10-27T05:53:39.532Z,1023.05
2016-10-27T05:54:39.511Z,1023.09
2016-10-27T05:55:39.540Z,1023.1
2016-10-27T05:56:39.451Z,1023.06
2016-10-27T05:57:39.487Z,1023.08
2016-10-27T05:58:39.397Z,1023.07
2016-10-27T06:00:39.477Z,1023.06
2016-10-27T06:02:39.304Z,1023.1
2016-10-27T06:03:39.262Z,1023.12
2016-10-27T06:04:39.271Z,1023.12
2016-10-27T06:05:39.208Z,1023.14
2016-10-27T06:06:39.178Z,1023.11
2016-10-27T06:07:39.142Z,1023.09
2016-10-27T06:08:39.108Z,1023.13
2016-10-27T06:09:39.086Z,1023.15
2016-10-27T06:10:39.078Z,1023.15
2016-10-27T06:11:39.028Z,1023.16
2016-10-27T06:12:39.003Z,1023.13
2016-10-27T06:13:39.004Z,1023.18
2016-10-27T06:14:39.011Z,1023.18
2016-10-27T06:15:38.928Z,1023.15
2016-10-27T06:16:38.936Z,1023.17
2016-10-27T06:17:38.856Z,1023.17
2016-10-27T06:18:38.831Z,1023.17
2016-10-27T06:19:38.796Z,1023.2
2016-10-27T06:20:38.778Z,1023.23
2016-10-27T06:21:39.142Z,1023.23
2016-10-27T06:23:38.909Z,1023.17
2016-10-27T06:24:38.668Z,1023.24
2016-10-27T06:25:38.703Z,1023.19
2016-10-27T06:26:38.646Z,1023.25
2016-10-27T06:27:38.567Z,1023.26
2016-10-27T06:28:38.546Z,1023.26
2016-10-27T06:29:38.564Z,1023.25
2016-10-27T06:30:39.703Z,1023.28
2016-10-27T06:31:38.519Z,1023.32
2016-10-27T06:32:38.433Z,1023.35
2016-10-27T06:33:38.402Z,1023.35
2016-10-27T06:34:38.373Z,1023.37
2016-10-27T06:36:38.419Z,1023.37
2016-10-27T06:37:38.300Z,1023.39
2016-10-27T06:38:38.325Z,1023.39
2016-10-27T06:39:38.234Z,1023.42
2016-10-27T06:40:38.210Z,1023.39
2016-10-27T06:41:38.338Z,1023.36
2016-10-27T06:42:38.206Z,1023.36
2016-10-27T06:43:38.127Z,1023.36
2016-10-27T06:44:38.093Z,1023.39
2016-10-27T06:45:38.069Z,1023.4
2016-10-27T06:46:38.034Z,1023.43
2016-10-27T06:47:38.026Z,1023.39
2016-10-27T06:48:37.984Z,1023.4
2016-10-27T06:49:38.014Z,1023.45
2016-10-27T06:50:37.927Z,1023.47
2016-10-27T06:51:37.916Z,1023.44
2016-10-27T06:52:37.910Z,1023.44
2016-10-27T06:53:37.918Z,1023.41
2016-10-27T06:54:37.871Z,1023.45
2016-10-27T06:55:37.783Z,1023.45
2016-10-27T06:56:37.813Z,1023.45
2016-10-27T06:57:37.753Z,1023.46
2016-10-27T06:58:37.706Z,1023.48
2016-10-27T06:59:37.684Z,1023.48
2016-10-27T07:00:37.652Z,1023.51
2016-10-27T07:01:37.666Z,1023.51
2016-10-27T07:02:37.587Z,1023.54
2016-10-27T07:03:37.572Z,1023.59
2016-10-27T07:04:37.557Z,1023.56
2016-10-27T07:06:37.526Z,1023.57
2016-10-27T07:08:37.442Z,1023.59
2016-10-27T07:09:37.390Z,1023.58
2016-10-27T07:10:37.363Z,1023.59
2016-10-27T07:11:37.354Z,1023.57
2016-10-27T07:13:37.273Z,1023.61
2016-10-27T07:14:37.251Z,1023.65
2016-10-27T07:17:37.189Z,1023.55
2016-10-27T07:18:37.141Z,1023.64
2016-10-27T07:19:37.151Z,1023.63
2016-10-27T07:20:37.072Z,1023.62
2016-10-27T07:21:37.066Z,1023.65
2016-10-27T07:23:36.995Z,1023.69
2016-10-27T07:24:36.962Z,1023.63
2016-10-27T07:25:37.001Z,1023.65
2016-10-27T07:26:36.907Z,1023.67
2016-10-27T07:27:36.896Z,1023.67
2016-10-27T07:28:36.855Z,1023.68
2016-10-27T07:29:36.882Z,1023.66
2016-10-27T07:30:36.800Z,1023.72
2016-10-27T07:31:36.778Z,1023.69
2016-10-27T07:32:36.735Z,1023.73
2016-10-27T07:33:36.714Z,1023.69
2016-10-27T07:34:36.695Z,1023.71
2016-10-27T07:36:36.623Z,1023.72
2016-10-27T07:37:36.602Z,1023.71
2016-10-27T07:38:36.575Z,1023.68
2016-10-27T07:39:36.616Z,1023.69
2016-10-27T07:40:36.528Z,1023.69
2016-10-27T07:41:36.513Z,1023.66
2016-10-27T07:42:36.463Z,1023.68
2016-10-27T07:44:36.859Z,1023.73
2016-10-27T07:45:36.934Z,1023.76
2016-10-27T07:46:36.360Z,1023.8
2016-10-27T07:47:36.331Z,1023.8
2016-10-27T07:48:36.298Z,1023.78
2016-10-27T07:49:36.290Z,1023.8
2016-10-27T07:50:36.235Z,1023.78
2016-10-27T07:51:36.222Z,1023.78
2016-10-27T07:52:36.203Z,1023.83
2016-10-27T07:53:36.179Z,1023.84
2016-10-27T07:54:36.123Z,1023.84
2016-10-27T07:56:36.680Z,1023.85
2016-10-27T07:57:36.040Z,1023.84
2016-10-27T07:58:36.014Z,1023.87
2016-10-27T07:59:35.983Z,1023.86
2016-10-27T08:00:36.487Z,1023.88
2016-10-27T08:01:35.927Z,1023.87
2016-10-27T08:02:35.918Z,1023.88
2016-10-27T08:03:35.882Z,1023.89
2016-10-27T08:04:35.854Z,1023.88
2016-10-27T08:05:35.877Z,1023.86
2016-10-27T08:06:35.805Z,1023.85
2016-10-27T08:07:40.872Z,1023.89
2016-10-27T08:08:35.799Z,1023.89
2016-10-27T08:09:35.779Z,1023.89
2016-10-27T08:10:35.680Z,1023.89
2016-10-27T08:11:35.649Z,1023.9
2016-10-27T08:12:35.685Z,1023.91
2016-10-27T08:13:35.604Z,1023.95
2016-10-27T08:14:35.561Z,1023.94
2016-10-27T08:15:35.609Z,1023.91
2016-10-27T08:16:35.590Z,1023.93
2016-10-27T08:17:35.530Z,1023.94
2016-10-27T08:18:35.582Z,1023.99
2016-10-27T08:19:35.424Z,1023.97
2016-10-27T08:20:35.400Z,1023.98
2016-10-27T08:21:35.370Z,1023.97
2016-10-27T08:22:35.342Z,1023.99
2016-10-27T08:23:35.324Z,1024.03
2016-10-27T08:24:35.281Z,1023.98
2016-10-27T08:26:35.598Z,1024
2016-10-27T08:27:35.314Z,1023.99
2016-10-27T08:28:35.185Z,1024.03
2016-10-27T08:29:35.150Z,1024.04
2016-10-27T08:30:35.113Z,1024.05
2016-10-27T08:31:35.102Z,1024.05
2016-10-27T08:32:35.103Z,1024.05
2016-10-27T08:33:35.092Z,1024.06
2016-10-27T08:34:35.041Z,1024.09
2016-10-27T08:35:34.983Z,1024.1
2016-10-27T08:36:35.049Z,1024.06
2016-10-27T08:37:34.929Z,1024.1
2016-10-27T08:38:34.897Z,1024.13
2016-10-27T08:39:35.307Z,1024.14
2016-10-27T08:40:34.856Z,1024.17
2016-10-27T08:41:34.841Z,1024.16
2016-10-27T08:42:34.999Z,1024.15
2016-10-27T08:43:34.770Z,1024.15
2016-10-27T08:44:35.200Z,1024.12
2016-10-27T08:45:34.726Z,1024.09
2016-10-27T08:46:34.684Z,1024.14
2016-10-27T08:47:34.723Z,1024.11
2016-10-27T08:48:34.694Z,1024.09
2016-10-27T08:49:34.633Z,1024.16
2016-10-27T08:50:34.625Z,1024.15
2016-10-27T08:51:34.598Z,1024.16
2016-10-27T08:52:34.523Z,1024.14
2016-10-27T08:53:35.098Z,1024.15
2016-10-27T08:54:34.484Z,1024.16
2016-10-27T08:55:34.482Z,1024.18
2016-10-27T08:56:34.640Z,1024.16
2016-10-27T08:57:34.382Z,1024.2
2016-10-27T08:58:34.489Z,1024.22
2016-10-27T08:59:34.325Z,1024.18
2016-10-27T09:01:34.467Z,1024.23
2016-10-27T09:02:34.232Z,1024.25
2016-10-27T09:03:34.217Z,1024.24
2016-10-27T09:04:34.226Z,1024.21
2016-10-27T09:05:34.163Z,1024.2
2016-10-27T09:06:34.129Z,1024.16
2016-10-27T09:07:34.094Z,1024.21
2016-10-27T09:08:34.122Z,1024.23
2016-10-27T09:09:34.172Z,1024.21
2016-10-27T09:10:34.171Z,1024.21
2016-10-27T09:11:34.087Z,1024.24
2016-10-27T09:12:35.965Z,1024.3
2016-10-27T09:13:33.995Z,1024.23
2016-10-27T09:14:33.936Z,1024.25
2016-10-27T09:15:34.561Z,1024.25
2016-10-27T09:16:33.864Z,1024.26
2016-10-27T09:17:34.164Z,1024.25
2016-10-27T09:18:33.868Z,1024.29
2016-10-27T09:19:33.772Z,1024.32
2016-10-27T09:20:33.753Z,1024.29
2016-10-27T09:21:33.735Z,1024.25
2016-10-27T09:22:33.686Z,1024.24
2016-10-27T09:23:33.757Z,1024.21
2016-10-27T09:24:33.673Z,1024.2
2016-10-27T09:25:33.636Z,1024.19
2016-10-27T09:26:33.565Z,1024.2
2016-10-27T09:27:33.555Z,1024.18
2016-10-27T09:28:33.579Z,1024.2
2016-10-27T09:29:33.843Z,1024.16
2016-10-27T09:30:33.590Z,1024.21
2016-10-27T09:31:33.851Z,1024.26
2016-10-27T09:32:33.528Z,1024.32
2016-10-27T09:33:33.516Z,1024.29
2016-10-27T09:34:33.352Z,1024.3
2016-10-27T09:35:33.517Z,1024.34
2016-10-27T09:36:33.317Z,1024.3
2016-10-27T09:37:33.456Z,1024.24
2016-10-27T09:38:33.262Z,1024.33
2016-10-27T09:39:33.247Z,1024.31
2016-10-27T09:40:33.281Z,1024.32
2016-10-27T09:41:33.449Z,1024.36
2016-10-27T09:42:33.148Z,1024.38
2016-10-27T09:43:33.203Z,1024.38
2016-10-27T09:44:34.977Z,1024.36
2016-10-27T09:45:33.283Z,1024.43
2016-10-27T09:46:33.027Z,1024.47
2016-10-27T09:47:33.009Z,1024.48
2016-10-27T09:48:33.210Z,1024.42
2016-10-27T09:49:32.945Z,1024.41
2016-10-27T09:50:33.202Z,1024.39
2016-10-27T09:51:32.950Z,1024.4
2016-10-27T09:52:32.862Z,1024.42
2016-10-27T09:53:32.841Z,1024.4
2016-10-27T09:54:32.838Z,1024.38
2016-10-27T09:55:32.792Z,1024.37
2016-10-27T09:56:32.822Z,1024.38
2016-10-27T09:57:32.795Z,1024.43
2016-10-27T09:58:33.049Z,1024.38
2016-10-27T09:59:32.679Z,1024.45
2016-10-27T10:00:32.699Z,1024.42
2016-10-27T10:01:32.940Z,1024.38
2016-10-27T10:02:32.586Z,1024.4
2016-10-27T10:03:32.678Z,1024.38
2016-10-27T10:04:32.529Z,1024.35
2016-10-27T10:05:32.509Z,1024.36
2016-10-27T10:06:32.576Z,1024.39
2016-10-27T10:07:32.469Z,1024.38
2016-10-27T10:08:32.479Z,1024.38
2016-10-27T10:09:32.390Z,1024.39
2016-10-27T10:10:32.393Z,1024.39
2016-10-27T10:11:32.343Z,1024.39
2016-10-27T10:12:32.439Z,1024.41
2016-10-27T10:13:32.354Z,1024.38
2016-10-27T10:14:32.264Z,1024.39
2016-10-27T10:15:32.241Z,1024.4
2016-10-27T10:16:32.306Z,1024.41
2016-10-27T10:17:32.206Z,1024.44
2016-10-27T10:18:32.170Z,1024.49
2016-10-27T10:19:32.193Z,1024.45
2016-10-27T10:21:32.250Z,1024.49
2016-10-27T10:22:32.081Z,1024.51
2016-10-27T10:23:32.049Z,1024.52
2016-10-27T10:24:32.192Z,1024.5
2016-10-27T10:25:31.966Z,1024.48
2016-10-27T10:26:31.952Z,1024.49
2016-10-27T10:27:31.935Z,1024.45
2016-10-27T10:28:34.145Z,1024.49
2016-10-27T10:29:31.867Z,1024.55
2016-10-27T10:30:31.927Z,1024.5
2016-10-27T10:32:31.780Z,1024.51
2016-10-27T10:33:31.757Z,1024.55
2016-10-27T10:34:31.844Z,1024.5
2016-10-27T10:35:31.742Z,1024.51
2016-10-27T10:36:31.812Z,1024.56
2016-10-27T10:37:31.654Z,1024.52
2016-10-27T10:38:31.805Z,1024.52
2016-10-27T10:39:31.598Z,1024.55
2016-10-27T10:40:31.620Z,1024.49
2016-10-27T10:41:31.547Z,1024.5
2016-10-27T10:42:31.508Z,1024.57
2016-10-27T10:43:31.481Z,1024.61
2016-10-27T10:44:31.461Z,1024.58
2016-10-27T10:45:31.521Z,1024.6
2016-10-27T10:46:31.439Z,1024.59
2016-10-27T10:47:31.417Z,1024.54
2016-10-27T10:48:31.348Z,1024.57
2016-10-27T10:49:31.381Z,1024.59
2016-10-27T10:50:31.286Z,1024.56
2016-10-27T10:51:31.281Z,1024.56
2016-10-27T10:52:31.289Z,1024.56
2016-10-27T10:53:31.228Z,1024.5
2016-10-27T10:54:31.187Z,1024.51
2016-10-27T10:56:31.129Z,1024.44
2016-10-27T10:57:31.119Z,1024.45
2016-10-27T10:58:31.132Z,1024.46
2016-10-27T10:59:31.109Z,1024.44
2016-10-27T11:00:31.123Z,1024.48
2016-10-27T11:01:31.003Z,1024.42
2016-10-27T11:02:31.135Z,1024.41
2016-10-27T11:03:31.252Z,1024.44
2016-10-27T11:05:30.908Z,1024.5
2016-10-27T11:06:30.863Z,1024.51
2016-10-27T11:07:30.822Z,1024.54
2016-10-27T11:08:30.810Z,1024.53
2016-10-27T11:09:31.070Z,1024.55
2016-10-27T11:10:30.754Z,1024.55
2016-10-27T11:12:32.006Z,1024.52
2016-10-27T11:13:30.670Z,1024.55
2016-10-27T11:14:30.701Z,1024.53
2016-10-27T11:15:30.734Z,1024.58
2016-10-27T11:16:30.623Z,1024.55
2016-10-27T11:17:30.643Z,1024.53
2016-10-27T11:18:31.239Z,1024.53
2016-10-27T11:19:30.548Z,1024.51
2016-10-27T11:20:30.569Z,1024.54
2016-10-27T11:21:30.450Z,1024.5
2016-10-27T11:22:30.460Z,1024.58
2016-10-27T11:23:30.445Z,1024.54
2016-10-27T11:24:30.368Z,1024.52
2016-10-27T11:25:30.342Z,1024.56
2016-10-27T11:26:30.393Z,1024.56
2016-10-27T11:27:30.814Z,1024.58
2016-10-27T11:28:30.489Z,1024.55
2016-10-27T11:29:30.650Z,1024.55
2016-10-27T11:30:30.356Z,1024.59
2016-10-27T11:31:30.213Z,1024.57
2016-10-27T11:32:30.187Z,1024.55
2016-10-27T11:33:30.140Z,1024.52
2016-10-27T11:34:30.182Z,1024.54
2016-10-27T11:35:30.084Z,1024.47
2016-10-27T11:36:30.059Z,1024.49
2016-10-27T11:37:30.048Z,1024.52
2016-10-27T11:38:30.003Z,1024.5
2016-10-27T11:39:30.075Z,1024.43
2016-10-27T11:40:29.959Z,1024.51
2016-10-27T11:41:29.963Z,1024.52
2016-10-27T11:42:29.892Z,1024.5
2016-10-27T11:44:29.835Z,1024.54
2016-10-27T11:45:29.809Z,1024.53
2016-10-27T11:46:29.790Z,1024.55
2016-10-27T11:47:29.819Z,1024.52
2016-10-27T11:49:29.713Z,1024.49
2016-10-27T11:50:29.842Z,1024.49
2016-10-27T11:51:29.647Z,1024.49
2016-10-27T11:52:29.787Z,1024.46
2016-10-27T11:53:29.645Z,1024.45
2016-10-27T11:54:29.568Z,1024.42
2016-10-27T11:55:29.802Z,1024.42
2016-10-27T11:56:29.580Z,1024.47
2016-10-27T11:57:29.800Z,1024.46
2016-10-27T11:58:29.514Z,1024.47
2016-10-27T11:59:29.444Z,1024.47
2016-10-27T12:00:29.422Z,1024.41
2016-10-27T12:01:29.432Z,1024.42
2016-10-27T12:02:29.357Z,1024.35
2016-10-27T12:03:29.325Z,1024.32
2016-10-27T12:05:29.272Z,1024.26
2016-10-27T12:06:29.313Z,1024.25
2016-10-27T12:07:29.235Z,1024.21
2016-10-27T12:08:29.225Z,1024.23
2016-10-27T12:09:29.166Z,1024.19
2016-10-27T12:10:29.168Z,1024.19
2016-10-27T12:11:29.169Z,1024.21
2016-10-27T12:12:29.287Z,1024.22
2016-10-27T12:13:29.059Z,1024.24
2016-10-27T12:14:29.248Z,1024.25
2016-10-27T12:16:29.024Z,1024.22
2016-10-27T12:17:29.056Z,1024.25
2016-10-27T12:19:28.900Z,1024.23
2016-10-27T12:20:28.869Z,1024.27
2016-10-27T12:22:29.266Z,1024.28
2016-10-27T12:23:28.811Z,1024.37
2016-10-27T12:25:28.735Z,1024.37
2016-10-27T12:26:28.765Z,1024.35
2016-10-27T12:29:28.778Z,1024.37
2016-10-27T12:31:28.629Z,1024.36
2016-10-27T12:32:28.649Z,1024.36
2016-10-27T12:33:28.530Z,1024.36
2016-10-27T12:35:28.500Z,1024.4
2016-10-27T12:36:28.441Z,1024.34
2016-10-27T12:37:28.493Z,1024.39
2016-10-27T12:38:28.608Z,1024.37
2016-10-27T12:40:28.342Z,1024.36
2016-10-27T12:41:28.368Z,1024.39
2016-10-27T12:42:28.498Z,1024.49
2016-10-27T12:43:28.307Z,1024.45
2016-10-27T12:44:28.482Z,1024.47
2016-10-27T12:45:28.386Z,1024.48
2016-10-27T12:46:28.181Z,1024.4
2016-10-27T12:49:51.266Z,1024.4
2016-10-27T12:51:51.205Z,1024.35
2016-10-27T12:52:51.519Z,1024.3
2016-10-27T12:53:51.145Z,1024.3
2016-10-27T12:54:51.231Z,1024.22
2016-10-27T12:55:51.108Z,1024.22
2016-10-27T12:56:51.484Z,1024.17
2016-10-27T12:57:51.101Z,1024.16
2016-10-27T12:58:51.075Z,1024.11
2016-10-27T12:59:51.039Z,1024.13
2016-10-27T13:01:52.900Z,1024.15
2016-10-27T13:02:50.953Z,1024.14
2016-10-27T13:03:50.889Z,1024.14
2016-10-27T13:04:50.856Z,1024.19
2016-10-27T13:05:50.835Z,1024.17
2016-10-27T13:06:50.910Z,1024.16
2016-10-27T13:08:50.810Z,1024.16
2016-10-27T13:09:50.725Z,1024.16
2016-10-27T13:10:50.695Z,1024.17
2016-10-27T13:11:50.749Z,1024.13
2016-10-27T13:12:50.691Z,1024.11
2016-10-27T13:13:50.632Z,1024.15
2016-10-27T13:15:50.567Z,1024.13
2016-10-27T13:17:50.554Z,1024.14
2016-10-27T13:18:50.483Z,1024.14
2016-10-27T13:19:51.183Z,1024.13
2016-10-27T13:20:50.449Z,1024.12